createdAt,value
2018-09-03T00:02:10.956Z,49.90
2018-09-03T00:04:40.159Z,49.50
2018-09-03T00:07:09.438Z,47.53
2018-09-03T00:09:40.390Z,60.13
2018-09-03T00:12:10.314Z,47.20
2018-09-03T00:14:39.653Z,44.27
2018-09-03T00:17:09.713Z,46.63
2018-09-03T00:19:39.202Z,44.50
2018-09-03T00:22:08.357Z,54.93
2018-09-03T00:24:37.648Z,46.80
2018-09-03T00:27:07.056Z,47.93
2018-09-03T00:29:37.179Z,53.80
2018-09-03T00:33:13.641Z,52.93
2018-09-03T00:35:48.023Z,53.43
2018-09-03T00:38:22.527Z,57.30
2018-09-03T00:40:56.977Z,50.60
2018-09-03T00:43:31.302Z,57.70
2018-09-03T00:46:05.777Z,70.13
2018-09-03T00:48:34.962Z,67.03
2018-09-03T00:51:04.131Z,65.83
2018-09-03T00:53:33.313Z,55.97
2018-09-03T00:56:02.576Z,60.75
2018-09-03T00:58:31.740Z,63.57
2018-09-03T01:01:00.930Z,57.80
2018-09-03T01:03:30.143Z,53.65
2018-09-03T01:05:59.357Z,61.77
2018-09-03T01:08:28.538Z,63.43
2018-09-03T01:10:57.710Z,64.03
2018-09-03T01:13:27.046Z,60.23
2018-09-03T01:15:56.253Z,62.20
2018-09-03T01:18:25.485Z,57.10
2018-09-03T01:20:54.673Z,64.13
2018-09-03T01:23:23.834Z,73.50
2018-09-03T01:25:53.090Z,64.22
2018-09-03T01:28:22.302Z,65.87
2018-09-03T01:30:51.489Z,80.73
2018-09-03T01:33:20.737Z,62.93
2018-09-03T01:35:49.900Z,68.03
2018-09-03T01:38:19.388Z,68.93
2018-09-03T01:40:48.616Z,75.30
2018-09-03T01:43:17.813Z,70.30
2018-09-03T01:45:46.987Z,69.20
2018-09-03T01:48:16.506Z,70.60
2018-09-03T01:50:45.718Z,72.60
2018-09-03T01:53:14.882Z,72.17
2018-09-03T01:55:44.096Z,74.63
2018-09-03T01:58:13.317Z,68.83
2018-09-03T02:00:42.677Z,71.03
2018-09-03T02:03:11.960Z,65.43
2018-09-03T02:05:41.312Z,64.57
2018-09-03T02:08:10.960Z,57.87
2018-09-03T02:10:40.197Z,68.40
2018-09-03T02:13:09.472Z,64.67
2018-09-03T02:15:38.694Z,60.00
2018-09-03T02:18:07.884Z,61.93
2018-09-03T02:20:37.086Z,65.80
2018-09-03T02:23:06.498Z,68.43
2018-09-03T02:25:35.794Z,57.40
2018-09-03T02:28:05.010Z,56.23
2018-09-03T02:30:34.276Z,62.73
2018-09-03T02:33:04.200Z,64.90
2018-09-03T02:35:34.139Z,59.17
2018-09-03T02:38:03.440Z,63.50
2018-09-03T02:40:32.656Z,57.37
2018-09-03T02:43:01.852Z,53.83
2018-09-03T02:45:31.115Z,51.10
2018-09-03T02:48:00.349Z,60.38
2018-09-03T02:50:29.532Z,61.10
2018-09-03T02:52:58.752Z,62.53
2018-09-03T02:55:27.972Z,54.77
2018-09-03T02:57:57.137Z,60.87
2018-09-03T03:00:27.329Z,65.33
2018-09-03T03:02:57.959Z,63.93
2018-09-03T03:05:27.964Z,63.85
2018-09-03T03:07:57.351Z,59.77
2018-09-03T03:10:26.523Z,62.67
2018-09-03T03:12:55.715Z,63.80
2018-09-03T03:15:24.932Z,60.60
2018-09-03T03:17:54.120Z,57.37
2018-09-03T03:20:23.319Z,61.90
2018-09-03T03:22:52.515Z,70.20
2018-09-03T03:25:21.765Z,66.25
2018-09-03T03:27:50.926Z,70.70
2018-09-03T03:30:20.182Z,66.67
2018-09-03T03:32:50.023Z,61.47
2018-09-03T03:35:19.203Z,63.02
2018-09-03T03:37:49.361Z,63.20
2018-09-03T03:40:19.573Z,66.27
2018-09-03T03:42:48.786Z,70.83
2018-09-03T03:45:18.049Z,61.30
2018-09-03T03:47:47.277Z,63.40
2018-09-03T03:50:16.471Z,68.50
2018-09-03T03:52:45.700Z,69.70
2018-09-03T03:55:14.966Z,71.60
2018-09-03T03:57:44.101Z,88.83
2018-09-03T04:00:13.253Z,77.57
2018-09-03T04:02:42.473Z,80.40
2018-09-03T04:05:11.676Z,71.33
2018-09-03T04:07:40.896Z,87.57
2018-09-03T04:10:10.105Z,81.17
2018-09-03T04:12:42.150Z,75.53
2018-09-03T04:15:11.403Z,80.77
2018-09-03T04:17:40.624Z,79.10
2018-09-03T04:20:09.809Z,89.77
2018-09-03T04:22:39.022Z,78.63
2018-09-03T04:25:08.418Z,81.03
2018-09-03T04:27:37.592Z,84.97
2018-09-03T04:30:06.929Z,80.63
2018-09-03T04:32:36.104Z,73.43
2018-09-03T04:35:05.489Z,84.40
2018-09-03T04:37:34.710Z,76.87
2018-09-03T04:40:03.909Z,91.87
2018-09-03T04:42:33.110Z,73.73
2018-09-03T04:45:02.285Z,91.83
2018-09-03T04:47:31.510Z,88.83
2018-09-03T04:50:00.671Z,87.57
2018-09-03T04:52:29.892Z,83.33
2018-09-03T04:54:59.085Z,91.17
2018-09-03T04:57:28.268Z,93.27
2018-09-03T04:59:57.590Z,86.10
2018-09-03T05:02:26.793Z,83.90
2018-09-03T05:04:55.987Z,95.80
2018-09-03T05:07:25.189Z,93.83
2018-09-03T05:09:54.489Z,95.37
2018-09-03T05:12:23.690Z,105.33
2018-09-03T05:14:52.891Z,112.73
2018-09-03T05:17:22.129Z,99.90
2018-09-03T05:19:51.277Z,104.40
2018-09-03T05:22:20.453Z,96.97
2018-09-03T05:24:49.677Z,98.77
2018-09-03T05:27:18.882Z,97.53
2018-09-03T05:29:48.140Z,101.40
2018-09-03T05:32:17.287Z,102.03
2018-09-03T05:34:46.474Z,100.72
2018-09-03T05:37:15.661Z,104.38
2018-09-03T05:39:46.158Z,103.57
2018-09-03T05:42:15.326Z,98.67
2018-09-03T05:44:44.507Z,101.27
2018-09-03T05:47:13.689Z,94.13
2018-09-03T05:49:42.850Z,91.00
2018-09-03T05:52:12.112Z,64.67
2018-09-03T05:54:41.314Z,77.10
2018-09-03T05:57:11.298Z,71.53
2018-09-03T05:59:40.513Z,74.53
2018-09-03T06:02:09.777Z,62.53
2018-09-03T06:04:39.309Z,74.80
2018-09-03T06:07:08.548Z,61.77
2018-09-03T06:09:37.742Z,64.77
2018-09-03T06:12:06.972Z,57.13
2018-09-03T06:14:36.117Z,68.30
2018-09-03T06:17:05.567Z,57.47
2018-09-03T06:19:34.722Z,56.10
2018-09-03T06:22:03.975Z,52.43
2018-09-03T06:24:33.144Z,59.00
2018-09-03T06:27:02.297Z,58.68
2018-09-03T06:29:31.476Z,62.50
2018-09-03T06:32:00.656Z,55.17
2018-09-03T06:34:29.852Z,70.30
2018-09-03T06:36:59.238Z,56.50
2018-09-03T06:39:28.475Z,51.28
2018-09-03T06:41:57.677Z,53.70
2018-09-03T06:44:26.945Z,47.70
2018-09-03T06:46:56.139Z,56.37
2018-09-03T06:49:25.288Z,53.83
2018-09-03T06:51:54.476Z,54.30
2018-09-03T06:54:23.829Z,50.93
2018-09-03T06:56:53.025Z,55.40
2018-09-03T06:59:22.252Z,59.53
2018-09-03T07:01:51.763Z,54.20
2018-09-03T07:04:20.905Z,56.53
2018-09-03T07:06:50.149Z,54.40
2018-09-03T07:09:19.246Z,60.40
2018-09-03T07:11:48.446Z,66.13
2018-09-03T07:14:17.618Z,56.00
2018-09-03T07:16:46.812Z,61.33
2018-09-03T07:19:16.013Z,53.10
2018-09-03T07:21:45.175Z,52.30
2018-09-03T07:24:15.445Z,51.57
2018-09-03T07:26:44.722Z,54.38
2018-09-03T07:29:13.889Z,50.43
2018-09-03T07:31:43.075Z,53.67
2018-09-03T07:34:12.237Z,45.77
2018-09-03T07:36:41.461Z,46.83
2018-09-03T07:39:11.270Z,51.43
2018-09-03T07:41:40.434Z,44.70
2018-09-03T07:44:09.695Z,35.10
2018-09-03T07:46:38.777Z,32.80
2018-09-03T07:49:08.194Z,32.07
2018-09-03T07:51:37.362Z,36.47
2018-09-03T07:54:07.043Z,30.73
2018-09-03T07:56:36.211Z,26.13
2018-09-03T07:59:05.583Z,29.40
2018-09-03T08:01:34.696Z,25.10
2018-09-03T08:04:03.870Z,26.47
2018-09-03T08:06:33.047Z,25.00
2018-09-03T08:09:02.193Z,26.47
2018-09-03T08:11:31.372Z,36.00
2018-09-03T08:14:00.679Z,21.07
2018-09-03T08:16:29.878Z,24.87
2018-09-03T08:18:59.042Z,19.40
2018-09-03T08:21:28.237Z,17.10
2018-09-03T08:23:57.501Z,17.50
2018-09-03T08:26:26.670Z,17.57
2018-09-03T08:28:55.856Z,15.50
2018-09-03T08:31:25.469Z,19.82
2018-09-03T08:33:54.681Z,13.50
2018-09-03T08:36:23.844Z,12.93
2018-09-03T08:38:53.022Z,19.20
2018-09-03T08:41:22.166Z,13.53
2018-09-03T08:43:51.391Z,12.57
2018-09-03T08:46:20.562Z,11.40
2018-09-03T08:48:49.779Z,11.63
2018-09-03T08:51:19.068Z,14.90
2018-09-03T08:53:48.281Z,12.18
2018-09-03T08:56:17.677Z,12.70
2018-09-03T08:58:46.854Z,10.97
2018-09-03T09:01:16.060Z,10.00
2018-09-03T09:03:45.408Z,13.28
2018-09-03T09:06:14.589Z,14.53
2018-09-03T09:08:43.783Z,11.07
2018-09-03T09:11:12.979Z,12.70
2018-09-03T09:13:42.146Z,10.93
2018-09-03T09:16:11.293Z,11.53
2018-09-03T09:18:40.520Z,16.30
2018-09-03T09:21:09.822Z,13.47
2018-09-03T09:23:38.995Z,14.90
2018-09-03T09:26:08.206Z,15.93
2018-09-03T09:28:37.392Z,15.27
2018-09-03T09:31:06.990Z,12.47
2018-09-03T09:33:36.137Z,12.60
2018-09-03T09:36:05.377Z,11.37
2018-09-03T09:38:34.555Z,16.00
2018-09-03T09:41:03.763Z,15.03
2018-09-03T09:43:33.040Z,10.60
2018-09-03T09:46:02.316Z,10.70
2018-09-03T09:48:31.469Z,9.87
2018-09-03T09:51:00.675Z,10.93
2018-09-03T09:53:29.883Z,11.27
2018-09-03T09:55:59.196Z,10.30
2018-09-03T09:58:29.090Z,9.83
2018-09-03T10:01:03.573Z,8.80
2018-09-03T10:03:33.176Z,10.40
2018-09-03T10:06:02.367Z,11.30
2018-09-03T10:08:31.539Z,11.37
2018-09-03T10:11:00.757Z,12.33
2018-09-03T10:13:29.949Z,16.93
2018-09-03T10:15:59.137Z,19.00
2018-09-03T10:18:28.372Z,21.40
2018-09-03T10:20:57.974Z,24.10
2018-09-03T10:23:27.145Z,16.97
2018-09-03T10:25:56.426Z,19.03
2018-09-03T10:28:25.580Z,22.23
2018-09-03T10:30:54.908Z,19.20
2018-09-03T10:33:24.117Z,23.12
2018-09-03T10:35:53.305Z,25.07
2018-09-03T10:38:22.476Z,21.80
2018-09-03T10:40:51.754Z,19.33
2018-09-03T10:43:20.897Z,18.07
2018-09-03T10:45:50.078Z,19.40
2018-09-03T10:48:19.311Z,25.00
2018-09-03T10:50:48.486Z,21.40
2018-09-03T10:53:17.712Z,20.32
2018-09-03T10:55:46.898Z,22.40
2018-09-03T10:58:16.091Z,20.37
2018-09-03T11:00:45.261Z,16.73
2018-09-03T11:03:14.465Z,18.50
2018-09-03T11:05:43.708Z,16.80
2018-09-03T11:08:12.882Z,16.03
2018-09-03T11:10:42.091Z,14.80
2018-09-03T11:13:11.320Z,13.53
2018-09-03T11:15:40.962Z,13.43
2018-09-03T11:18:10.191Z,11.37
2018-09-03T11:20:39.668Z,12.33
2018-09-03T11:23:09.009Z,10.83
2018-09-03T11:25:38.490Z,9.03
2018-09-03T11:28:07.826Z,10.20
2018-09-03T11:30:37.151Z,10.80
2018-09-03T11:33:06.693Z,9.83
2018-09-03T11:35:35.881Z,10.13
2018-09-03T11:38:05.130Z,8.97
2018-09-03T11:40:34.421Z,10.10
2018-09-03T11:43:03.632Z,9.07
2018-09-03T11:45:33.177Z,10.53
2018-09-03T11:48:02.381Z,10.17
2018-09-03T11:50:31.624Z,9.47
2018-09-03T11:53:00.854Z,7.85
2018-09-03T11:55:30.082Z,10.77
2018-09-03T11:57:59.361Z,13.07
2018-09-03T12:00:30.832Z,11.17
2018-09-03T12:03:00.305Z,9.50
2018-09-03T12:05:30.089Z,10.00
2018-09-03T12:07:59.377Z,9.60
2018-09-03T12:10:28.555Z,9.40
2018-09-03T12:12:57.717Z,16.55
2018-09-03T12:15:35.983Z,11.45
2018-09-03T12:18:05.170Z,12.13
2018-09-03T12:20:34.316Z,9.27
2018-09-03T12:23:03.531Z,10.50
2018-09-03T12:25:32.721Z,8.63
2018-09-03T12:28:01.920Z,8.70
2018-09-03T12:30:31.134Z,11.93
2018-09-03T12:33:00.610Z,8.37
2018-09-03T12:35:29.827Z,11.12
2018-09-03T12:37:59.083Z,8.40
2018-09-03T12:40:28.264Z,13.80
2018-09-03T12:42:57.479Z,10.97
2018-09-03T12:45:31.897Z,8.85
2018-09-03T12:48:01.443Z,9.17
2018-09-03T12:50:30.679Z,10.67
2018-09-03T12:52:59.900Z,9.77
2018-09-03T12:55:29.141Z,10.53
2018-09-03T12:57:58.362Z,12.20
2018-09-03T13:00:27.561Z,9.23
2018-09-03T13:02:56.820Z,9.43
2018-09-03T13:05:25.969Z,8.68
2018-09-03T13:07:55.179Z,9.17
2018-09-03T13:10:24.519Z,10.17
2018-09-03T13:12:53.773Z,10.63
2018-09-03T13:15:23.081Z,10.03
2018-09-03T13:17:52.296Z,9.57
2018-09-03T13:20:21.526Z,16.90
2018-09-03T13:22:50.702Z,9.17
2018-09-03T13:25:19.910Z,8.60
2018-09-03T13:27:49.131Z,8.47
2018-09-03T13:30:18.354Z,12.00
2018-09-03T13:32:47.530Z,13.23
2018-09-03T13:35:16.753Z,8.43
2018-09-03T13:37:45.947Z,9.27
2018-09-03T13:40:15.347Z,8.50
2018-09-03T13:42:44.526Z,8.60
2018-09-03T13:45:13.761Z,8.20
2018-09-03T13:47:42.952Z,9.07
2018-09-03T13:50:12.175Z,9.30
2018-09-03T13:52:41.455Z,9.03
2018-09-03T13:55:11.505Z,7.95
2018-09-03T13:57:40.684Z,8.33
2018-09-03T14:00:10.984Z,8.00
2018-09-03T14:02:40.293Z,7.47
2018-09-03T14:05:09.637Z,7.90
2018-09-03T14:07:38.917Z,7.90
2018-09-03T14:10:08.247Z,7.60
2018-09-03T14:12:37.462Z,6.97
2018-09-03T14:15:07.037Z,6.43
2018-09-03T14:17:36.287Z,6.77
2018-09-03T14:20:05.590Z,6.80
2018-09-03T14:22:34.753Z,6.90
2018-09-03T14:25:03.931Z,7.23
2018-09-03T14:27:33.137Z,6.47
2018-09-03T14:30:02.333Z,6.33
2018-09-03T14:32:31.606Z,5.53
2018-09-03T14:35:00.772Z,5.23
2018-09-03T14:37:30.186Z,5.33
2018-09-03T14:39:59.375Z,5.30
2018-09-03T14:42:28.579Z,5.87
2018-09-03T14:44:57.807Z,5.97
2018-09-03T14:47:27.050Z,5.47
2018-09-03T14:49:56.409Z,36.93
2018-09-03T14:52:25.784Z,13.13
2018-09-03T14:54:54.970Z,12.00
2018-09-03T14:57:24.142Z,7.62
2018-09-03T14:59:53.398Z,13.83
2018-09-03T15:02:22.550Z,8.47
2018-09-03T15:04:51.828Z,6.77
2018-09-03T15:07:21.017Z,6.57
2018-09-03T15:09:50.196Z,8.77
2018-09-03T15:12:19.406Z,13.08
2018-09-03T15:14:48.666Z,8.93
2018-09-03T15:17:17.773Z,9.28
2018-09-03T15:19:46.979Z,13.30
2018-09-03T15:22:16.165Z,9.83
2018-09-03T15:24:45.349Z,9.63
2018-09-03T15:27:14.556Z,11.20
2018-09-03T15:29:43.741Z,10.27
2018-09-03T15:32:12.933Z,8.13
2018-09-03T15:34:42.138Z,9.07
2018-09-03T15:37:11.430Z,8.80
2018-09-03T15:39:40.635Z,14.60
2018-09-03T15:42:09.841Z,10.00
2018-09-03T15:44:39.037Z,10.60
2018-09-03T15:47:08.392Z,11.37
2018-09-03T15:49:37.538Z,12.50
2018-09-03T15:52:06.750Z,14.97
2018-09-03T15:54:35.905Z,12.50
2018-09-03T15:57:05.179Z,14.85
2018-09-03T15:59:34.364Z,15.93
2018-09-03T16:02:04.185Z,16.60
2018-09-03T16:04:33.333Z,15.87
2018-09-03T16:07:02.500Z,17.47
2018-09-03T16:09:31.640Z,20.23
2018-09-03T16:12:00.810Z,18.60
2018-09-03T16:14:30.012Z,20.93
2018-09-03T16:16:59.394Z,19.07
2018-09-03T16:19:28.573Z,20.25
2018-09-03T16:21:57.812Z,22.60
2018-09-03T16:24:26.986Z,15.57
2018-09-03T16:26:56.166Z,13.50
2018-09-03T16:29:25.337Z,15.93
2018-09-03T16:31:54.619Z,15.67
2018-09-03T16:34:23.814Z,16.73
2018-09-03T16:36:54.352Z,18.67
2018-09-03T16:39:23.512Z,17.70
2018-09-03T16:41:52.674Z,23.07
2018-09-03T16:44:21.865Z,20.90
2018-09-03T16:46:51.042Z,18.67
2018-09-03T16:49:20.230Z,18.98
2018-09-03T16:51:49.434Z,21.10
2018-09-03T16:54:18.647Z,19.73
2018-09-03T16:56:47.832Z,20.15
2018-09-03T16:59:16.992Z,16.20
2018-09-03T17:01:46.170Z,18.67
2018-09-03T17:04:15.444Z,18.97
2018-09-03T17:06:44.681Z,18.20
2018-09-03T17:09:13.846Z,19.77
2018-09-03T17:11:43.041Z,19.77
2018-09-03T17:14:12.227Z,19.80
2018-09-03T17:16:41.391Z,20.63
2018-09-03T17:19:11.475Z,41.80
2018-09-03T17:21:40.661Z,95.63
2018-09-03T17:24:11.765Z,44.30
2018-09-03T17:26:40.917Z,40.97
2018-09-03T17:29:10.100Z,34.37
2018-09-03T17:31:39.307Z,25.33
2018-09-03T17:34:08.487Z,23.17
2018-09-03T17:36:37.705Z,14.50
2018-09-03T17:39:08.025Z,12.00
2018-09-03T17:41:37.183Z,12.17
2018-09-03T17:44:06.460Z,9.77
2018-09-03T17:46:35.647Z,11.43
2018-09-03T17:49:04.851Z,6.80
2018-09-03T17:51:34.020Z,10.23
2018-09-03T17:54:03.218Z,5.97
2018-09-03T17:56:32.381Z,6.47
2018-09-03T17:59:01.661Z,6.57
2018-09-03T18:01:30.965Z,5.20
2018-09-03T18:04:00.299Z,8.13
2018-09-03T18:06:29.482Z,7.15
2018-09-03T18:08:58.669Z,5.33
2018-09-03T18:11:28.313Z,4.83
2018-09-03T18:13:57.525Z,4.57
2018-09-03T18:16:26.843Z,4.20
2018-09-03T18:18:57.002Z,4.37
2018-09-03T18:21:26.214Z,6.80
2018-09-03T18:23:55.355Z,4.57
2018-09-03T18:26:25.663Z,5.57
2018-09-03T18:28:54.874Z,5.90
2018-09-03T18:31:24.874Z,5.83
2018-09-03T18:33:54.055Z,12.17
2018-09-03T18:36:23.226Z,7.00
2018-09-03T18:38:53.761Z,6.47
2018-09-03T18:41:22.923Z,7.00
2018-09-03T18:43:52.159Z,5.13
2018-09-03T18:46:21.313Z,5.60
2018-09-03T18:48:50.482Z,4.83
2018-09-03T18:51:19.729Z,9.98
2018-09-03T18:53:49.026Z,4.90
2018-09-03T18:56:18.195Z,3.85
2018-09-03T18:58:47.397Z,4.60
2018-09-03T19:01:16.537Z,4.00
2018-09-03T19:03:45.695Z,5.00
2018-09-03T19:06:14.968Z,4.80
2018-09-03T19:08:44.041Z,6.07
2018-09-03T19:11:14.683Z,17.10
2018-09-03T19:13:43.854Z,8.30
2018-09-03T19:16:13.017Z,10.53
2018-09-03T19:18:42.400Z,5.97
2018-09-03T19:21:11.560Z,5.87
2018-09-03T19:23:42.412Z,6.20
2018-09-03T19:26:11.619Z,5.60
2018-09-03T19:28:40.794Z,5.83
2018-09-03T19:31:09.998Z,7.80
2018-09-03T19:33:39.218Z,9.70
2018-09-03T19:36:08.417Z,6.37
2018-09-03T19:38:37.575Z,6.40
2018-09-03T19:41:07.017Z,6.70
2018-09-03T19:43:36.266Z,7.00
2018-09-03T19:46:05.432Z,6.87
2018-09-03T19:48:34.579Z,7.10
2018-09-03T19:51:03.749Z,6.67
2018-09-03T19:53:32.944Z,6.93
2018-09-03T19:56:02.049Z,6.40
2018-09-03T19:58:31.294Z,6.47
2018-09-03T20:01:00.480Z,6.43
2018-09-03T20:03:29.654Z,20.12
2018-09-03T20:05:58.890Z,6.67
2018-09-03T20:08:28.109Z,6.87
2018-09-03T20:10:57.225Z,9.10
2018-09-03T20:13:26.720Z,9.20
2018-09-03T20:15:55.912Z,9.40
2018-09-03T20:18:25.103Z,15.17
2018-09-03T20:20:54.281Z,14.57
2018-09-03T20:23:23.958Z,11.00
2018-09-03T20:25:53.217Z,10.30
2018-09-03T20:28:22.443Z,9.48
2018-09-03T20:30:51.574Z,12.33
2018-09-03T20:33:20.762Z,9.67
2018-09-03T20:35:49.956Z,9.78
2018-09-03T20:38:19.145Z,9.70
2018-09-03T20:40:48.319Z,13.40
2018-09-03T20:43:17.502Z,15.95
2018-09-03T20:45:46.656Z,21.27
2018-09-03T20:48:15.856Z,21.70
2018-09-03T20:50:45.056Z,20.40
2018-09-03T20:53:14.252Z,20.80
2018-09-03T20:55:43.619Z,25.23
2018-09-03T20:58:12.809Z,22.00
2018-09-03T21:00:42.030Z,20.63
2018-09-03T21:03:11.203Z,25.10
2018-09-03T21:05:40.368Z,22.60
2018-09-03T21:08:09.560Z,35.47
2018-09-03T21:10:38.702Z,24.60
2018-09-03T21:13:08.046Z,24.47
2018-09-03T21:15:37.401Z,26.35
2018-09-03T21:18:06.539Z,26.90
2018-09-03T21:20:35.718Z,29.80
2018-09-03T21:23:04.905Z,26.30
2018-09-03T21:25:34.046Z,22.50
2018-09-03T21:28:03.274Z,25.90
2018-09-03T21:30:32.420Z,23.07
2018-09-03T21:33:01.586Z,26.63
2018-09-03T21:35:30.791Z,23.90
2018-09-03T21:38:00.063Z,25.40
2018-09-03T21:40:29.223Z,26.13
2018-09-03T21:42:58.411Z,21.07
2018-09-03T21:45:27.569Z,25.50
2018-09-03T21:47:56.746Z,26.42
2018-09-03T21:50:25.896Z,23.57
2018-09-03T21:52:55.091Z,25.67
2018-09-03T21:55:24.233Z,26.17
2018-09-03T21:57:53.466Z,30.50
2018-09-03T22:00:22.687Z,27.40
2018-09-03T22:02:51.909Z,35.60
2018-09-03T22:05:21.118Z,33.77
2018-09-03T22:07:50.255Z,27.90
2018-09-03T22:10:19.481Z,27.90
2018-09-03T22:12:48.671Z,28.47
2018-09-03T22:15:17.837Z,24.40
2018-09-03T22:17:46.977Z,21.60
2018-09-03T22:20:16.179Z,25.92
2018-09-03T22:22:46.187Z,35.07
2018-09-03T22:25:15.381Z,20.77
2018-09-03T22:27:44.622Z,21.37
2018-09-03T22:30:13.860Z,25.77
2018-09-03T22:32:44.677Z,20.60
2018-09-03T22:35:14.035Z,23.95
2018-09-03T22:37:43.750Z,25.07
2018-09-03T22:40:12.904Z,26.40
2018-09-03T22:42:42.165Z,24.98
2018-09-03T22:45:11.541Z,22.43
2018-09-03T22:47:40.753Z,26.83
2018-09-03T22:50:09.972Z,23.50
2018-09-03T22:52:39.181Z,21.47
2018-09-03T22:55:08.569Z,26.67
2018-09-03T22:57:37.765Z,21.20
2018-09-03T23:00:07.050Z,21.47
2018-09-03T23:02:41.570Z,19.37
2018-09-03T23:05:12.320Z,20.90
2018-09-03T23:07:41.466Z,21.53
2018-09-03T23:10:10.946Z,23.30
2018-09-03T23:12:40.152Z,24.43
2018-09-03T23:15:09.915Z,22.90
2018-09-03T23:17:39.125Z,26.57
2018-09-03T23:20:08.355Z,23.03
2018-09-03T23:22:37.498Z,25.70
2018-09-03T23:25:06.959Z,28.90
2018-09-03T23:27:36.097Z,25.80
2018-09-03T23:30:05.449Z,26.37
2018-09-03T23:32:34.710Z,22.00
2018-09-03T23:35:04.050Z,28.53
2018-09-03T23:37:33.356Z,32.93
2018-09-03T23:40:02.961Z,25.40
2018-09-03T23:42:32.177Z,31.40
2018-09-03T23:45:01.408Z,27.70
2018-09-03T23:47:30.688Z,41.13
2018-09-03T23:49:59.965Z,36.63
2018-09-03T23:52:29.117Z,27.60
2018-09-03T23:54:58.341Z,37.00
2018-09-03T23:57:27.561Z,26.70
2018-09-03T23:59:56.777Z,30.40
